sensor_id;sensor_type;location;lat;lon;timestamp;P1;durP1;ratioP1;P2;durP2;ratioP2
29570;SDS011;16814;52.118;11.436;2022-10-20T00:00:40;11.87;;;6.97;;
29570;SDS011;16814;52.118;11.436;2022-10-20T00:03:06;12.20;;;7.00;;
29570;SDS011;16814;52.118;11.436;2022-10-20T00:05:31;12.18;;;6.53;;
29570;SDS011;16814;52.118;11.436;2022-10-20T00:07:57;12.40;;;6.37;;
29570;SDS011;16814;52.118;11.436;2022-10-20T00:10:22;8.37;;;5.33;;
29570;SDS011;16814;52.118;11.436;2022-10-20T00:12:48;10.73;;;5.30;;
29570;SDS011;16814;52.118;11.436;2022-10-20T00:15:13;12.47;;;5.30;;
29570;SDS011;16814;52.118;11.436;2022-10-20T00:17:39;10.73;;;5.25;;
29570;SDS011;16814;52.118;11.436;2022-10-20T00:20:05;10.00;;;5.60;;
29570;SDS011;16814;52.118;11.436;2022-10-20T00:22:31;13.13;;;6.35;;
29570;SDS011;16814;52.118;11.436;2022-10-20T00:24:56;15.37;;;7.17;;
29570;SDS011;16814;52.118;11.436;2022-10-20T00:27:22;13.65;;;6.68;;
29570;SDS011;16814;52.118;11.436;2022-10-20T00:29:47;11.40;;;6.70;;
29570;SDS011;16814;52.118;11.436;2022-10-20T00:32:13;11.70;;;6.13;;
29570;SDS011;16814;52.118;11.436;2022-10-20T00:34:39;12.55;;;6.85;;
29570;SDS011;16814;52.118;11.436;2022-10-20T00:37:04;13.63;;;6.70;;
29570;SDS011;16814;52.118;11.436;2022-10-20T00:39:30;13.13;;;6.67;;
29570;SDS011;16814;52.118;11.436;2022-10-20T00:41:55;13.90;;;6.13;;
29570;SDS011;16814;52.118;11.436;2022-10-20T00:47:21;14.57;;;6.22;;
29570;SDS011;16814;52.118;11.436;2022-10-20T00:49:52;20.40;;;7.35;;
29570;SDS011;16814;52.118;11.436;2022-10-20T00:52:19;15.70;;;7.75;;
29570;SDS011;16814;52.118;11.436;2022-10-20T00:54:46;16.30;;;7.07;;
29570;SDS011;16814;52.118;11.436;2022-10-20T00:57:12;12.02;;;5.70;;
29570;SDS011;16814;52.118;11.436;2022-10-20T00:59:38;11.90;;;5.77;;
29570;SDS011;16814;52.118;11.436;2022-10-20T01:02:04;17.40;;;6.55;;
29570;SDS011;16814;52.118;11.436;2022-10-20T01:04:31;11.20;;;5.90;;
29570;SDS011;16814;52.118;11.436;2022-10-20T01:06:58;11.65;;;5.90;;
29570;SDS011;16814;52.118;11.436;2022-10-20T01:09:24;9.75;;;5.80;;
29570;SDS011;16814;52.118;11.436;2022-10-20T01:11:59;11.13;;;6.03;;
29570;SDS011;16814;52.118;11.436;2022-10-20T01:14:50;12.90;;;5.90;;
29570;SDS011;16814;52.118;11.436;2022-10-20T01:17:34;13.40;;;6.22;;
29570;SDS011;16814;52.118;11.436;2022-10-20T01:23:10;10.80;;;6.25;;
29570;SDS011;16814;52.118;11.436;2022-10-20T01:28:38;10.95;;;5.80;;
29570;SDS011;16814;52.118;11.436;2022-10-20T01:31:22;15.10;;;6.50;;
29570;SDS011;16814;52.118;11.436;2022-10-20T01:34:04;13.00;;;6.60;;
29570;SDS011;16814;52.118;11.436;2022-10-20T01:36:55;13.65;;;5.93;;
29570;SDS011;16814;52.118;11.436;2022-10-20T01:39:27;10.75;;;5.53;;
29570;SDS011;16814;52.118;11.436;2022-10-20T01:42:15;10.00;;;5.77;;
29570;SDS011;16814;52.118;11.436;2022-10-20T01:44:45;9.95;;;5.65;;
29570;SDS011;16814;52.118;11.436;2022-10-20T01:47:13;11.03;;;5.40;;
29570;SDS011;16814;52.118;11.436;2022-10-20T01:49:41;9.23;;;5.55;;
29570;SDS011;16814;52.118;11.436;2022-10-20T01:52:09;9.60;;;5.55;;
29570;SDS011;16814;52.118;11.436;2022-10-20T01:54:35;11.85;;;5.30;;
29570;SDS011;16814;52.118;11.436;2022-10-20T02:00:00;12.00;;;5.57;;
29570;SDS011;16814;52.118;11.436;2022-10-20T02:08:04;10.63;;;5.60;;
29570;SDS011;16814;52.118;11.436;2022-10-20T02:10:55;11.55;;;5.53;;
29570;SDS011;16814;52.118;11.436;2022-10-20T02:13:24;9.77;;;5.35;;
29570;SDS011;16814;52.118;11.436;2022-10-20T02:15:52;12.85;;;5.00;;
29570;SDS011;16814;52.118;11.436;2022-10-20T02:18:21;8.97;;;4.37;;
29570;SDS011;16814;52.118;11.436;2022-10-20T02:20:51;7.45;;;4.32;;
29570;SDS011;16814;52.118;11.436;2022-10-20T02:23:19;5.80;;;3.95;;
29570;SDS011;16814;52.118;11.436;2022-10-20T02:25:45;8.73;;;4.70;;
29570;SDS011;16814;52.118;11.436;2022-10-20T02:28:16;7.72;;;4.97;;
29570;SDS011;16814;52.118;11.436;2022-10-20T02:30:44;9.25;;;3.97;;
29570;SDS011;16814;52.118;11.436;2022-10-20T02:33:10;10.73;;;4.60;;
29570;SDS011;16814;52.118;11.436;2022-10-20T02:35:37;8.45;;;4.30;;
29570;SDS011;16814;52.118;11.436;2022-10-20T02:38:06;8.15;;;4.40;;
29570;SDS011;16814;52.118;11.436;2022-10-20T02:40:31;9.90;;;4.13;;
29570;SDS011;16814;52.118;11.436;2022-10-20T02:42:57;7.55;;;4.30;;
29570;SDS011;16814;52.118;11.436;2022-10-20T02:45:22;9.57;;;4.10;;
29570;SDS011;16814;52.118;11.436;2022-10-20T02:47:48;7.93;;;3.80;;
29570;SDS011;16814;52.118;11.436;2022-10-20T02:50:13;8.07;;;3.77;;
29570;SDS011;16814;52.118;11.436;2022-10-20T02:52:40;6.37;;;3.70;;
29570;SDS011;16814;52.118;11.436;2022-10-20T02:55:06;6.97;;;3.47;;
29570;SDS011;16814;52.118;11.436;2022-10-20T02:57:32;9.63;;;3.93;;
29570;SDS011;16814;52.118;11.436;2022-10-20T02:59:57;6.80;;;3.73;;
29570;SDS011;16814;52.118;11.436;2022-10-20T03:02:23;10.80;;;3.73;;
29570;SDS011;16814;52.118;11.436;2022-10-20T03:04:48;7.63;;;3.85;;
29570;SDS011;16814;52.118;11.436;2022-10-20T03:07:14;8.20;;;3.80;;
29570;SDS011;16814;52.118;11.436;2022-10-20T03:09:39;7.80;;;4.10;;
29570;SDS011;16814;52.118;11.436;2022-10-20T03:12:05;7.60;;;4.87;;
29570;SDS011;16814;52.118;11.436;2022-10-20T03:14:30;6.57;;;4.20;;
29570;SDS011;16814;52.118;11.436;2022-10-20T03:16:56;6.80;;;3.53;;
29570;SDS011;16814;52.118;11.436;2022-10-20T03:19:21;9.93;;;3.70;;
29570;SDS011;16814;52.118;11.436;2022-10-20T03:21:47;9.18;;;4.25;;
29570;SDS011;16814;52.118;11.436;2022-10-20T03:24:13;10.70;;;4.57;;
29570;SDS011;16814;52.118;11.436;2022-10-20T03:26:39;6.95;;;4.38;;
29570;SDS011;16814;52.118;11.436;2022-10-20T03:29:04;10.40;;;4.27;;
29570;SDS011;16814;52.118;11.436;2022-10-20T03:31:30;8.52;;;4.20;;
29570;SDS011;16814;52.118;11.436;2022-10-20T03:33:56;8.47;;;4.03;;
29570;SDS011;16814;52.118;11.436;2022-10-20T03:36:21;8.82;;;4.13;;
29570;SDS011;16814;52.118;11.436;2022-10-20T03:38:47;8.73;;;4.23;;
29570;SDS011;16814;52.118;11.436;2022-10-20T03:41:12;9.43;;;4.30;;
29570;SDS011;16814;52.118;11.436;2022-10-20T03:43:38;7.85;;;4.65;;
29570;SDS011;16814;52.118;11.436;2022-10-20T03:46:05;7.68;;;3.95;;
29570;SDS011;16814;52.118;11.436;2022-10-20T03:48:32;9.70;;;4.78;;
29570;SDS011;16814;52.118;11.436;2022-10-20T03:50:58;8.50;;;4.40;;
29570;SDS011;16814;52.118;11.436;2022-10-20T03:53:25;11.13;;;4.63;;
29570;SDS011;16814;52.118;11.436;2022-10-20T03:55:51;8.55;;;4.30;;
29570;SDS011;16814;52.118;11.436;2022-10-20T03:58:16;8.57;;;4.22;;
29570;SDS011;16814;52.118;11.436;2022-10-20T04:00:43;9.40;;;4.57;;
29570;SDS011;16814;52.118;11.436;2022-10-20T04:03:09;8.30;;;4.38;;
29570;SDS011;16814;52.118;11.436;2022-10-20T04:05:34;10.50;;;4.60;;
29570;SDS011;16814;52.118;11.436;2022-10-20T04:07:59;7.90;;;4.68;;
29570;SDS011;16814;52.118;11.436;2022-10-20T04:10:25;11.07;;;4.47;;
29570;SDS011;16814;52.118;11.436;2022-10-20T04:12:50;9.10;;;4.60;;
29570;SDS011;16814;52.118;11.436;2022-10-20T04:15:16;9.27;;;4.40;;
29570;SDS011;16814;52.118;11.436;2022-10-20T04:17:44;7.57;;;4.55;;
29570;SDS011;16814;52.118;11.436;2022-10-20T04:20:10;10.33;;;4.20;;
29570;SDS011;16814;52.118;11.436;2022-10-20T04:22:36;9.48;;;4.03;;
29570;SDS011;16814;52.118;11.436;2022-10-20T04:25:02;12.27;;;4.20;;
29570;SDS011;16814;52.118;11.436;2022-10-20T04:27:28;7.35;;;4.43;;
29570;SDS011;16814;52.118;11.436;2022-10-20T04:29:53;9.65;;;4.30;;
29570;SDS011;16814;52.118;11.436;2022-10-20T04:32:19;6.63;;;4.20;;
29570;SDS011;16814;52.118;11.436;2022-10-20T04:34:45;8.68;;;4.35;;
29570;SDS011;16814;52.118;11.436;2022-10-20T04:37:10;10.67;;;4.33;;
29570;SDS011;16814;52.118;11.436;2022-10-20T04:39:36;9.68;;;4.07;;
29570;SDS011;16814;52.118;11.436;2022-10-20T04:42:01;9.33;;;4.80;;
29570;SDS011;16814;52.118;11.436;2022-10-20T04:44:27;6.90;;;4.27;;
29570;SDS011;16814;52.118;11.436;2022-10-20T04:46:53;8.18;;;4.40;;
29570;SDS011;16814;52.118;11.436;2022-10-20T04:49:19;8.73;;;4.72;;
29570;SDS011;16814;52.118;11.436;2022-10-20T04:51:44;11.35;;;4.63;;
29570;SDS011;16814;52.118;11.436;2022-10-20T04:54:10;7.37;;;4.53;;
29570;SDS011;16814;52.118;11.436;2022-10-20T04:56:35;10.07;;;4.82;;
29570;SDS011;16814;52.118;11.436;2022-10-20T04:59:01;8.17;;;4.83;;
29570;SDS011;16814;52.118;11.436;2022-10-20T05:01:28;7.70;;;5.18;;
29570;SDS011;16814;52.118;11.436;2022-10-20T05:03:54;7.93;;;4.95;;
29570;SDS011;16814;52.118;11.436;2022-10-20T05:06:21;11.00;;;5.15;;
29570;SDS011;16814;52.118;11.436;2022-10-20T05:08:50;10.95;;;5.10;;
29570;SDS011;16814;52.118;11.436;2022-10-20T05:11:18;9.18;;;5.22;;
29570;SDS011;16814;52.118;11.436;2022-10-20T05:13:45;10.03;;;5.90;;
29570;SDS011;16814;52.118;11.436;2022-10-20T05:16:11;12.83;;;5.53;;
29570;SDS011;16814;52.118;11.436;2022-10-20T05:18:37;12.13;;;5.95;;
29570;SDS011;16814;52.118;11.436;2022-10-20T05:21:07;11.38;;;6.07;;
29570;SDS011;16814;52.118;11.436;2022-10-20T05:23:35;11.60;;;6.15;;
29570;SDS011;16814;52.118;11.436;2022-10-20T05:26:01;11.30;;;6.72;;
29570;SDS011;16814;52.118;11.436;2022-10-20T05:28:28;13.38;;;7.28;;
29570;SDS011;16814;52.118;11.436;2022-10-20T05:30:53;13.23;;;7.60;;
29570;SDS011;16814;52.118;11.436;2022-10-20T05:33:19;13.10;;;7.30;;
29570;SDS011;16814;52.118;11.436;2022-10-20T05:35:44;15.10;;;8.03;;
29570;SDS011;16814;52.118;11.436;2022-10-20T05:38:10;15.33;;;8.57;;
29570;SDS011;16814;52.118;11.436;2022-10-20T05:40:35;18.70;;;8.30;;
29570;SDS011;16814;52.118;11.436;2022-10-20T05:43:01;23.03;;;8.57;;
29570;SDS011;16814;52.118;11.436;2022-10-20T05:45:26;13.77;;;9.23;;
29570;SDS011;16814;52.118;11.436;2022-10-20T05:47:52;22.07;;;10.70;;
29570;SDS011;16814;52.118;11.436;2022-10-20T05:50:17;24.27;;;11.48;;
29570;SDS011;16814;52.118;11.436;2022-10-20T05:52:43;21.00;;;11.53;;
29570;SDS011;16814;52.118;11.436;2022-10-20T05:55:08;27.97;;;11.53;;
29570;SDS011;16814;52.118;11.436;2022-10-20T05:57:34;39.90;;;13.60;;
29570;SDS011;16814;52.118;11.436;2022-10-20T05:59:59;36.53;;;13.40;;
29570;SDS011;16814;52.118;11.436;2022-10-20T06:02:25;40.37;;;14.93;;
29570;SDS011;16814;52.118;11.436;2022-10-20T06:04:50;38.20;;;14.87;;
29570;SDS011;16814;52.118;11.436;2022-10-20T06:07:16;36.20;;;15.57;;
29570;SDS011;16814;52.118;11.436;2022-10-20T06:09:41;72.53;;;16.90;;
29570;SDS011;16814;52.118;11.436;2022-10-20T06:12:07;50.40;;;16.40;;
29570;SDS011;16814;52.118;11.436;2022-10-20T06:14:32;95.60;;;17.10;;
29570;SDS011;16814;52.118;11.436;2022-10-20T06:16:58;60.53;;;17.40;;
29570;SDS011;16814;52.118;11.436;2022-10-20T06:19:24;48.47;;;18.13;;
29570;SDS011;16814;52.118;11.436;2022-10-20T06:21:50;67.45;;;20.02;;
29570;SDS011;16814;52.118;11.436;2022-10-20T06:24:17;57.03;;;20.92;;
29570;SDS011;16814;52.118;11.436;2022-10-20T06:26:43;53.58;;;21.63;;
29570;SDS011;16814;52.118;11.436;2022-10-20T06:29:10;58.45;;;24.20;;
29570;SDS011;16814;52.118;11.436;2022-10-20T06:31:38;52.33;;;24.33;;
29570;SDS011;16814;52.118;11.436;2022-10-20T06:34:07;53.25;;;24.42;;
29570;SDS011;16814;52.118;11.436;2022-10-20T06:36:37;53.28;;;25.85;;
29570;SDS011;16814;52.118;11.436;2022-10-20T06:39:04;51.15;;;25.63;;
29570;SDS011;16814;52.118;11.436;2022-10-20T06:41:31;57.80;;;26.63;;
29570;SDS011;16814;52.118;11.436;2022-10-20T06:43:57;52.17;;;26.17;;
29570;SDS011;16814;52.118;11.436;2022-10-20T06:46:23;51.63;;;26.67;;
29570;SDS011;16814;52.118;11.436;2022-10-20T06:48:51;52.80;;;26.67;;
29570;SDS011;16814;52.118;11.436;2022-10-20T06:51:17;56.87;;;26.67;;
29570;SDS011;16814;52.118;11.436;2022-10-20T06:53:44;52.58;;;27.63;;
29570;SDS011;16814;52.118;11.436;2022-10-20T06:56:10;54.35;;;26.77;;
29570;SDS011;16814;52.118;11.436;2022-10-20T06:58:38;51.20;;;26.15;;
29570;SDS011;16814;52.118;11.436;2022-10-20T07:01:09;55.47;;;26.75;;
29570;SDS011;16814;52.118;11.436;2022-10-20T07:03:36;55.90;;;27.95;;
29570;SDS011;16814;52.118;11.436;2022-10-20T07:06:03;50.75;;;26.98;;
29570;SDS011;16814;52.118;11.436;2022-10-20T07:08:31;51.37;;;26.20;;
29570;SDS011;16814;52.118;11.436;2022-10-20T07:10:58;46.33;;;25.70;;
29570;SDS011;16814;52.118;11.436;2022-10-20T07:13:27;50.10;;;26.70;;
29570;SDS011;16814;52.118;11.436;2022-10-20T07:15:53;49.67;;;26.88;;
29570;SDS011;16814;52.118;11.436;2022-10-20T07:18:20;47.78;;;26.80;;
29570;SDS011;16814;52.118;11.436;2022-10-20T07:20:46;47.53;;;25.87;;
29570;SDS011;16814;52.118;11.436;2022-10-20T07:23:11;49.07;;;26.27;;
29570;SDS011;16814;52.118;11.436;2022-10-20T07:25:37;46.27;;;25.93;;
29570;SDS011;16814;52.118;11.436;2022-10-20T07:28:02;43.83;;;24.27;;
29570;SDS011;16814;52.118;11.436;2022-10-20T07:30:28;50.30;;;27.37;;
29570;SDS011;16814;52.118;11.436;2022-10-20T07:32:53;47.67;;;26.73;;
29570;SDS011;16814;52.118;11.436;2022-10-20T07:35:19;50.20;;;26.87;;
29570;SDS011;16814;52.118;11.436;2022-10-20T07:37:44;45.60;;;26.02;;
29570;SDS011;16814;52.118;11.436;2022-10-20T07:40:10;41.43;;;24.20;;
29570;SDS011;16814;52.118;11.436;2022-10-20T07:42:36;39.38;;;24.90;;
29570;SDS011;16814;52.118;11.436;2022-10-20T07:45:01;44.10;;;24.00;;
29570;SDS011;16814;52.118;11.436;2022-10-20T07:47:27;39.95;;;22.73;;
29570;SDS011;16814;52.118;11.436;2022-10-20T07:49:52;37.50;;;22.40;;
29570;SDS011;16814;52.118;11.436;2022-10-20T07:52:18;36.47;;;21.88;;
29570;SDS011;16814;52.118;11.436;2022-10-20T07:54:44;39.13;;;22.00;;
29570;SDS011;16814;52.118;11.436;2022-10-20T07:57:09;38.20;;;21.67;;
29570;SDS011;16814;52.118;11.436;2022-10-20T07:59:35;41.03;;;22.87;;
29570;SDS011;16814;52.118;11.436;2022-10-20T08:02:01;40.88;;;24.38;;
29570;SDS011;16814;52.118;11.436;2022-10-20T08:04:26;41.20;;;23.90;;
29570;SDS011;16814;52.118;11.436;2022-10-20T08:06:55;39.92;;;23.13;;
29570;SDS011;16814;52.118;11.436;2022-10-20T08:09:21;40.95;;;23.48;;
29570;SDS011;16814;52.118;11.436;2022-10-20T08:11:46;36.33;;;23.23;;
29570;SDS011;16814;52.118;11.436;2022-10-20T08:14:12;34.97;;;21.73;;
29570;SDS011;16814;52.118;11.436;2022-10-20T08:16:37;36.70;;;22.92;;
29570;SDS011;16814;52.118;11.436;2022-10-20T08:19:03;38.97;;;24.80;;
29570;SDS011;16814;52.118;11.436;2022-10-20T08:21:28;39.57;;;24.40;;
29570;SDS011;16814;52.118;11.436;2022-10-20T08:23:54;41.80;;;25.23;;
29570;SDS011;16814;52.118;11.436;2022-10-20T08:26:23;37.70;;;23.33;;
29570;SDS011;16814;52.118;11.436;2022-10-20T08:28:50;36.80;;;24.35;;
29570;SDS011;16814;52.118;11.436;2022-10-20T08:31:17;37.42;;;23.08;;
29570;SDS011;16814;52.118;11.436;2022-10-20T08:33:43;36.22;;;23.35;;
29570;SDS011;16814;52.118;11.436;2022-10-20T08:36:11;36.25;;;23.30;;
29570;SDS011;16814;52.118;11.436;2022-10-20T08:38:38;32.42;;;21.65;;
29570;SDS011;16814;52.118;11.436;2022-10-20T08:41:05;31.10;;;21.02;;
29570;SDS011;16814;52.118;11.436;2022-10-20T08:43:39;31.88;;;20.60;;
29570;SDS011;16814;52.118;11.436;2022-10-20T08:46:05;30.42;;;19.98;;
29570;SDS011;16814;52.118;11.436;2022-10-20T08:48:31;29.67;;;20.17;;
29570;SDS011;16814;52.118;11.436;2022-10-20T08:50:58;32.67;;;20.77;;
29570;SDS011;16814;52.118;11.436;2022-10-20T08:53:24;28.40;;;18.92;;
29570;SDS011;16814;52.118;11.436;2022-10-20T08:55:51;29.67;;;19.17;;
29570;SDS011;16814;52.118;11.436;2022-10-20T08:58:19;32.80;;;19.52;;
29570;SDS011;16814;52.118;11.436;2022-10-20T09:00:47;35.22;;;19.52;;
29570;SDS011;16814;52.118;11.436;2022-10-20T09:03:20;30.13;;;18.27;;
29570;SDS011;16814;52.118;11.436;2022-10-20T09:06:11;26.30;;;17.50;;
29570;SDS011;16814;52.118;11.436;2022-10-20T09:08:38;24.30;;;16.30;;
29570;SDS011;16814;52.118;11.436;2022-10-20T09:11:06;26.85;;;18.23;;
29570;SDS011;16814;52.118;11.436;2022-10-20T09:13:33;24.92;;;16.92;;
29570;SDS011;16814;52.118;11.436;2022-10-20T09:16:02;22.53;;;15.80;;
29570;SDS011;16814;52.118;11.436;2022-10-20T09:18:30;22.17;;;15.48;;
29570;SDS011;16814;52.118;11.436;2022-10-20T09:20:58;19.33;;;14.85;;
29570;SDS011;16814;52.118;11.436;2022-10-20T09:23:37;20.10;;;14.60;;
29570;SDS011;16814;52.118;11.436;2022-10-20T09:26:50;20.83;;;14.52;;
29570;SDS011;16814;52.118;11.436;2022-10-20T09:29:08;19.23;;;12.68;;
29570;SDS011;16814;52.118;11.436;2022-10-20T09:31:36;18.38;;;13.65;;
29570;SDS011;16814;52.118;11.436;2022-10-20T09:34:25;17.15;;;12.77;;
29570;SDS011;16814;52.118;11.436;2022-10-20T09:39:32;18.15;;;11.90;;
29570;SDS011;16814;52.118;11.436;2022-10-20T09:42:11;15.13;;;11.15;;
29570;SDS011;16814;52.118;11.436;2022-10-20T09:44:46;15.90;;;11.50;;
29570;SDS011;16814;52.118;11.436;2022-10-20T09:47:14;16.13;;;10.57;;
29570;SDS011;16814;52.118;11.436;2022-10-20T09:49:41;12.73;;;10.27;;
29570;SDS011;16814;52.118;11.436;2022-10-20T09:52:15;14.77;;;10.23;;
29570;SDS011;16814;52.118;11.436;2022-10-20T09:54:47;16.63;;;10.30;;
29570;SDS011;16814;52.118;11.436;2022-10-20T09:57:18;16.50;;;9.73;;
29570;SDS011;16814;52.118;11.436;2022-10-20T09:59:45;13.32;;;9.13;;
29570;SDS011;16814;52.118;11.436;2022-10-20T10:04:40;14.20;;;9.30;;
29570;SDS011;16814;52.118;11.436;2022-10-20T10:12:30;11.82;;;8.88;;
29570;SDS011;16814;52.118;11.436;2022-10-20T10:14:58;13.40;;;8.68;;
29570;SDS011;16814;52.118;11.436;2022-10-20T10:17:30;22.45;;;11.18;;
29570;SDS011;16814;52.118;11.436;2022-10-20T10:19:57;14.80;;;8.55;;
29570;SDS011;16814;52.118;11.436;2022-10-20T10:22:23;12.90;;;8.35;;
29570;SDS011;16814;52.118;11.436;2022-10-20T10:24:49;12.95;;;8.13;;
29570;SDS011;16814;52.118;11.436;2022-10-20T10:27:22;12.10;;;8.13;;
29570;SDS011;16814;52.118;11.436;2022-10-20T10:29:53;12.18;;;7.63;;
29570;SDS011;16814;52.118;11.436;2022-10-20T10:32:27;12.37;;;7.90;;
29570;SDS011;16814;52.118;11.436;2022-10-20T10:35:04;10.38;;;7.70;;
29570;SDS011;16814;52.118;11.436;2022-10-20T10:37:40;8.70;;;6.70;;
29570;SDS011;16814;52.118;11.436;2022-10-20T10:40:14;17.48;;;8.07;;
29570;SDS011;16814;52.118;11.436;2022-10-20T10:42:44;13.37;;;7.47;;
29570;SDS011;16814;52.118;11.436;2022-10-20T10:45:43;10.52;;;7.45;;
29570;SDS011;16814;52.118;11.436;2022-10-20T10:48:27;11.70;;;7.65;;
29570;SDS011;16814;52.118;11.436;2022-10-20T10:51:23;8.93;;;7.35;;
29570;SDS011;16814;52.118;11.436;2022-10-20T10:56:47;13.25;;;8.00;;
29570;SDS011;16814;52.118;11.436;2022-10-20T11:07:19;14.93;;;8.15;;
29570;SDS011;16814;52.118;11.436;2022-10-20T11:09:58;15.25;;;8.60;;
29570;SDS011;16814;52.118;11.436;2022-10-20T11:12:42;11.90;;;8.27;;
29570;SDS011;16814;52.118;11.436;2022-10-20T11:15:23;13.90;;;9.05;;
29570;SDS011;16814;52.118;11.436;2022-10-20T11:20:37;13.13;;;8.80;;
29570;SDS011;16814;52.118;11.436;2022-10-20T11:26:21;17.43;;;9.00;;
29570;SDS011;16814;52.118;11.436;2022-10-20T11:28:51;12.68;;;8.25;;
29570;SDS011;16814;52.118;11.436;2022-10-20T11:31:22;16.20;;;8.73;;
29570;SDS011;16814;52.118;11.436;2022-10-20T11:34:15;13.13;;;8.60;;
29570;SDS011;16814;52.118;11.436;2022-10-20T11:37:27;12.10;;;8.50;;
29570;SDS011;16814;52.118;11.436;2022-10-20T11:39:57;11.73;;;8.30;;
29570;SDS011;16814;52.118;11.436;2022-10-20T11:43:31;13.25;;;8.57;;
29570;SDS011;16814;52.118;11.436;2022-10-20T11:48:33;11.83;;;8.77;;
29570;SDS011;16814;52.118;11.436;2022-10-20T12:08:06;14.18;;;8.70;;
29570;SDS011;16814;52.118;11.436;2022-10-20T12:13:17;12.77;;;7.82;;
29570;SDS011;16814;52.118;11.436;2022-10-20T12:15:54;11.73;;;7.57;;
29570;SDS011;16814;52.118;11.436;2022-10-20T12:20:52;8.13;;;5.63;;
29570;SDS011;16814;52.118;11.436;2022-10-20T12:29:00;7.55;;;5.47;;
29570;SDS011;16814;52.118;11.436;2022-10-20T12:34:46;11.48;;;7.30;;
29570;SDS011;16814;52.118;11.436;2022-10-20T12:37:16;11.77;;;6.65;;
29570;SDS011;16814;52.118;11.436;2022-10-20T12:39:44;7.90;;;5.20;;
29570;SDS011;16814;52.118;11.436;2022-10-20T12:42:21;9.30;;;5.30;;
29570;SDS011;16814;52.118;11.436;2022-10-20T12:44:52;10.10;;;4.80;;
29570;SDS011;16814;52.118;11.436;2022-10-20T12:47:20;9.48;;;5.05;;
29570;SDS011;16814;52.118;11.436;2022-10-20T12:49:56;8.95;;;4.78;;
29570;SDS011;16814;52.118;11.436;2022-10-20T12:52:30;9.10;;;4.80;;
29570;SDS011;16814;52.118;11.436;2022-10-20T12:55:02;7.22;;;4.22;;
29570;SDS011;16814;52.118;11.436;2022-10-20T12:57:37;7.10;;;4.10;;
29570;SDS011;16814;52.118;11.436;2022-10-20T13:02:44;8.70;;;4.55;;
29570;SDS011;16814;52.118;11.436;2022-10-20T13:21:00;6.82;;;4.20;;
29570;SDS011;16814;52.118;11.436;2022-10-20T13:23:52;7.53;;;4.55;;
29570;SDS011;16814;52.118;11.436;2022-10-20T13:26:29;9.90;;;4.80;;
29570;SDS011;16814;52.118;11.436;2022-10-20T13:29:00;9.93;;;5.13;;
29570;SDS011;16814;52.118;11.436;2022-10-20T13:34:09;6.73;;;4.33;;
29570;SDS011;16814;52.118;11.436;2022-10-20T13:36:54;9.65;;;3.60;;
29570;SDS011;16814;52.118;11.436;2022-10-20T13:42:11;13.50;;;4.15;;
29570;SDS011;16814;52.118;11.436;2022-10-20T13:44:55;8.30;;;4.00;;
29570;SDS011;16814;52.118;11.436;2022-10-20T13:47:58;6.00;;;3.80;;
29570;SDS011;16814;52.118;11.436;2022-10-20T13:50:40;9.30;;;3.83;;
29570;SDS011;16814;52.118;11.436;2022-10-20T13:53:17;8.35;;;3.90;;
29570;SDS011;16814;52.118;11.436;2022-10-20T13:55:54;13.55;;;3.92;;
29570;SDS011;16814;52.118;11.436;2022-10-20T13:58:26;7.68;;;4.07;;
29570;SDS011;16814;52.118;11.436;2022-10-20T14:03:30;6.13;;;3.85;;
29570;SDS011;16814;52.118;11.436;2022-10-20T14:05:57;8.07;;;3.60;;
29570;SDS011;16814;52.118;11.436;2022-10-20T14:08:23;10.50;;;3.88;;
29570;SDS011;16814;52.118;11.436;2022-10-20T14:10:57;7.40;;;3.95;;
29570;SDS011;16814;52.118;11.436;2022-10-20T14:13:30;8.38;;;4.63;;
29570;SDS011;16814;52.118;11.436;2022-10-20T14:15:58;8.70;;;4.53;;
29570;SDS011;16814;52.118;11.436;2022-10-20T14:18:29;11.20;;;5.15;;
29570;SDS011;16814;52.118;11.436;2022-10-20T14:20:57;12.45;;;5.30;;
29570;SDS011;16814;52.118;11.436;2022-10-20T14:23:26;7.93;;;5.05;;
29570;SDS011;16814;52.118;11.436;2022-10-20T14:25:57;8.35;;;4.75;;
29570;SDS011;16814;52.118;11.436;2022-10-20T14:28:23;8.73;;;4.57;;
29570;SDS011;16814;52.118;11.436;2022-10-20T14:30:51;6.45;;;4.30;;
29570;SDS011;16814;52.118;11.436;2022-10-20T14:33:26;12.15;;;4.80;;
29570;SDS011;16814;52.118;11.436;2022-10-20T14:35:53;7.87;;;5.07;;
29570;SDS011;16814;52.118;11.436;2022-10-20T14:38:32;10.57;;;5.80;;
29570;SDS011;16814;52.118;11.436;2022-10-20T14:41:01;12.27;;;6.00;;
29570;SDS011;16814;52.118;11.436;2022-10-20T14:43:35;20.50;;;10.35;;
29570;SDS011;16814;52.118;11.436;2022-10-20T14:46:03;37.58;;;18.20;;
29570;SDS011;16814;52.118;11.436;2022-10-20T14:48:38;24.42;;;12.35;;
29570;SDS011;16814;52.118;11.436;2022-10-20T14:53:51;39.03;;;17.08;;
29570;SDS011;16814;52.118;11.436;2022-10-20T14:56:59;22.70;;;10.15;;
29570;SDS011;16814;52.118;11.436;2022-10-20T14:59:54;27.63;;;11.43;;
29570;SDS011;16814;52.118;11.436;2022-10-20T15:02:37;21.75;;;8.75;;
29570;SDS011;16814;52.118;11.436;2022-10-20T15:08:14;17.90;;;7.50;;
29570;SDS011;16814;52.118;11.436;2022-10-20T15:10:52;15.87;;;7.73;;
29570;SDS011;16814;52.118;11.436;2022-10-20T15:13:20;13.32;;;5.95;;
29570;SDS011;16814;52.118;11.436;2022-10-20T15:15:52;10.43;;;4.88;;
29570;SDS011;16814;52.118;11.436;2022-10-20T15:18:20;9.48;;;5.15;;
29570;SDS011;16814;52.118;11.436;2022-10-20T15:20:53;12.85;;;4.85;;
29570;SDS011;16814;52.118;11.436;2022-10-20T15:23:34;10.27;;;5.07;;
29570;SDS011;16814;52.118;11.436;2022-10-20T15:26:09;10.37;;;5.10;;
29570;SDS011;16814;52.118;11.436;2022-10-20T15:28:38;12.23;;;5.32;;
29570;SDS011;16814;52.118;11.436;2022-10-20T15:33:41;8.73;;;5.25;;
29570;SDS011;16814;52.118;11.436;2022-10-20T15:36:22;19.45;;;5.72;;
29570;SDS011;16814;52.118;11.436;2022-10-20T15:38:53;11.55;;;4.95;;
29570;SDS011;16814;52.118;11.436;2022-10-20T15:41:21;10.88;;;4.78;;
29570;SDS011;16814;52.118;11.436;2022-10-20T15:43:49;8.93;;;5.35;;
29570;SDS011;16814;52.118;11.436;2022-10-20T15:46:15;11.57;;;7.05;;
29570;SDS011;16814;52.118;11.436;2022-10-20T15:48:41;10.82;;;6.22;;
29570;SDS011;16814;52.118;11.436;2022-10-20T15:51:10;13.87;;;6.30;;
29570;SDS011;16814;52.118;11.436;2022-10-20T15:53:46;13.93;;;6.80;;
29570;SDS011;16814;52.118;11.436;2022-10-20T15:56:13;10.25;;;6.10;;
29570;SDS011;16814;52.118;11.436;2022-10-20T15:58:38;12.40;;;6.57;;
29570;SDS011;16814;52.118;11.436;2022-10-20T16:01:04;15.30;;;7.83;;
29570;SDS011;16814;52.118;11.436;2022-10-20T16:03:29;11.03;;;6.33;;
29570;SDS011;16814;52.118;11.436;2022-10-20T16:05:55;13.35;;;7.38;;
29570;SDS011;16814;52.118;11.436;2022-10-20T16:08:21;14.30;;;7.33;;
29570;SDS011;16814;52.118;11.436;2022-10-20T16:10:46;14.63;;;7.63;;
29570;SDS011;16814;52.118;11.436;2022-10-20T16:13:11;13.93;;;7.10;;
29570;SDS011;16814;52.118;11.436;2022-10-20T16:15:37;13.40;;;6.93;;
29570;SDS011;16814;52.118;11.436;2022-10-20T16:18:03;13.30;;;7.57;;
29570;SDS011;16814;52.118;11.436;2022-10-20T16:20:28;12.07;;;7.85;;
29570;SDS011;16814;52.118;11.436;2022-10-20T16:22:54;15.90;;;7.67;;
29570;SDS011;16814;52.118;11.436;2022-10-20T16:25:19;11.77;;;7.40;;
29570;SDS011;16814;52.118;11.436;2022-10-20T16:27:45;15.67;;;7.83;;